createdAt,value
2023-02-06T00:01:05.066Z,0.65
2023-02-06T00:06:07.165Z,1.02
2023-02-06T00:11:11.426Z,0.20
2023-02-06T00:16:16.829Z,0.77
2023-02-06T00:21:19.106Z,0.32
2023-02-06T00:26:21.162Z,0.65
2023-02-06T00:31:22.653Z,0.50
2023-02-06T00:36:24.159Z,0.38
2023-02-06T00:41:25.566Z,0.57
2023-02-06T00:46:27.113Z,0.20
2023-02-06T00:51:28.863Z,0.88
2023-02-06T00:56:30.311Z,0.15
2023-02-06T01:01:31.933Z,0.28
2023-02-06T01:06:33.420Z,0.20
2023-02-06T01:11:35.519Z,0.68
2023-02-06T01:16:36.966Z,0.50
2023-02-06T01:21:38.741Z,0.38
2023-02-06T01:26:40.232Z,0.40
2023-02-06T01:31:41.720Z,0.20
2023-02-06T01:36:43.287Z,0.52
2023-02-06T01:41:44.785Z,0.45
2023-02-06T01:46:48.581Z,0.38
2023-02-06T01:51:55.582Z,0.30
2023-02-06T01:57:02.106Z,0.40
2023-02-06T02:02:04.070Z,0.50
2023-02-06T02:07:25.177Z,1.45
2023-02-06T02:12:26.679Z,0.28
2023-02-06T02:17:28.086Z,0.35
2023-02-06T02:22:41.428Z,1.25
2023-02-06T02:28:04.481Z,0.40
2023-02-06T02:33:24.477Z,0.30
2023-02-06T02:38:45.370Z,0.50
2023-02-06T02:44:02.130Z,0.43
2023-02-06T02:49:19.610Z,0.10
2023-02-06T02:54:21.242Z,0.30
2023-02-06T02:59:28.756Z,0.57
2023-02-06T03:04:52.705Z,0.30
2023-02-06T03:10:27.220Z,0.20
2023-02-06T03:15:40.402Z,0.50
2023-02-06T03:20:46.135Z,0.30
2023-02-06T03:30:56.661Z,0.85
2023-02-06T03:35:58.248Z,0.20
2023-02-06T03:41:01.292Z,0.50
2023-02-06T03:46:06.325Z,0.22
2023-02-06T03:51:13.111Z,0.37
2023-02-06T03:56:24.258Z,0.15
2023-02-06T04:01:26.096Z,1.40
2023-02-06T04:06:27.542Z,0.40
2023-02-06T04:11:28.978Z,0.30
2023-02-06T04:16:30.564Z,0.50
2023-02-06T04:21:32.060Z,0.10
2023-02-06T04:26:33.652Z,0.28
2023-02-06T04:31:35.104Z,0.30
2023-02-06T04:36:36.632Z,0.30
2023-02-06T04:41:38.139Z,0.40
2023-02-06T04:46:39.680Z,0.25
2023-02-06T04:51:42.025Z,0.63
2023-02-06T04:56:44.778Z,0.28
2023-02-06T05:01:46.274Z,0.40
2023-02-06T05:06:47.692Z,0.22
2023-02-06T05:11:49.168Z,0.28
2023-02-06T05:16:50.651Z,0.57
2023-02-06T05:21:52.084Z,0.08
2023-02-06T05:26:53.567Z,0.40
2023-02-06T05:31:55.045Z,0.10
2023-02-06T05:36:56.646Z,0.30
2023-02-06T05:41:58.139Z,0.40
2023-02-06T05:46:59.638Z,0.30
2023-02-06T05:52:01.043Z,0.50
2023-02-06T05:57:02.622Z,0.57
2023-02-06T06:02:04.613Z,0.20
2023-02-06T06:07:06.015Z,0.30
2023-02-06T06:12:07.690Z,0.38
2023-02-06T06:17:09.252Z,0.68
2023-02-06T06:22:10.669Z,0.60
2023-02-06T06:27:12.075Z,0.30
2023-02-06T06:32:13.659Z,0.47
2023-02-06T06:37:15.226Z,0.45
2023-02-06T06:42:16.746Z,0.40
2023-02-06T06:47:18.348Z,1.02
2023-02-06T06:52:25.341Z,1.00
2023-02-06T06:57:30.729Z,1.73
2023-02-06T07:02:32.300Z,1.40
2023-02-06T07:07:34.105Z,1.30
2023-02-06T07:12:36.018Z,1.90
2023-02-06T07:17:37.574Z,1.92
2023-02-06T07:22:39.241Z,1.20
2023-02-06T07:27:40.695Z,1.45
2023-02-06T07:32:42.242Z,1.60
2023-02-06T07:37:43.708Z,1.17
2023-02-06T07:42:45.180Z,1.58
2023-02-06T07:47:46.797Z,1.23
2023-02-06T07:52:48.358Z,1.27
2023-02-06T07:57:49.767Z,1.63
2023-02-06T08:02:51.590Z,2.63
2023-02-06T08:07:53.284Z,2.08
2023-02-06T08:12:54.751Z,2.20
2023-02-06T08:17:56.257Z,2.38
2023-02-06T08:22:57.794Z,2.10
2023-02-06T08:27:59.316Z,2.95
2023-02-06T08:33:00.745Z,2.47
2023-02-06T08:38:02.321Z,2.08
2023-02-06T08:43:03.931Z,1.98
2023-02-06T08:48:05.512Z,2.53
2023-02-06T08:53:07.005Z,1.58
2023-02-06T08:58:08.776Z,1.85
2023-02-06T09:03:10.250Z,1.75
2023-02-06T09:08:11.769Z,1.60
2023-02-06T09:13:13.209Z,1.50
2023-02-06T09:18:14.919Z,1.70
2023-02-06T09:23:17.273Z,1.77
2023-02-06T09:28:18.781Z,1.85
2023-02-06T09:33:20.288Z,2.00
2023-02-06T09:38:21.758Z,1.48
2023-02-06T09:43:23.775Z,2.40
2023-02-06T09:48:28.526Z,1.95
2023-02-06T09:53:37.589Z,1.15
2023-02-06T09:59:07.267Z,2.03
2023-02-06T10:04:20.698Z,1.63
2023-02-06T10:09:34.225Z,1.55
2023-02-06T10:14:45.052Z,1.58
2023-02-06T10:20:10.577Z,1.58
2023-02-06T10:25:28.452Z,1.87
2023-02-06T10:30:58.990Z,1.02
2023-02-06T10:36:19.566Z,1.88
2023-02-06T10:41:35.604Z,1.85
2023-02-06T10:51:47.300Z,1.33
2023-02-06T10:56:50.839Z,0.90
2023-02-06T11:02:03.943Z,0.93
2023-02-06T11:07:14.374Z,2.10
2023-02-06T11:12:44.221Z,1.73
2023-02-06T11:17:46.091Z,1.83
2023-02-06T11:22:53.114Z,1.50
2023-02-06T11:27:57.739Z,1.63
2023-02-06T11:33:08.985Z,1.65
2023-02-06T11:38:19.954Z,1.17
2023-02-06T11:43:33.011Z,2.13
2023-02-06T11:48:41.033Z,0.77
2023-02-06T11:54:03.301Z,0.85
2023-02-06T11:59:18.960Z,1.13
2023-02-06T12:04:31.230Z,1.48
2023-02-06T12:09:32.847Z,1.25
2023-02-06T12:14:39.618Z,1.65
2023-02-06T12:19:58.548Z,1.10
2023-02-06T12:25:03.809Z,0.77
2023-02-06T12:30:23.709Z,0.90
2023-02-06T12:35:41.304Z,1.65
2023-02-06T12:41:37.073Z,1.13
2023-02-06T12:46:41.190Z,1.42
2023-02-06T12:51:55.545Z,0.52
2023-02-06T12:57:16.192Z,0.73
2023-02-06T13:02:48.558Z,1.00
2023-02-06T13:07:51.514Z,1.00
2023-02-06T13:12:57.959Z,0.80
2023-02-06T13:17:59.463Z,1.58
2023-02-06T13:23:13.382Z,0.75
2023-02-06T13:28:21.001Z,0.60
2023-02-06T13:33:25.093Z,1.10
2023-02-06T13:38:36.637Z,0.88
2023-02-06T13:43:40.974Z,0.90
2023-02-06T13:48:57.442Z,0.73
2023-02-06T13:54:29.693Z,1.02
2023-02-06T13:59:37.261Z,0.90
2023-02-06T14:04:40.104Z,1.00
2023-02-06T14:09:57.147Z,0.73
2023-02-06T14:15:10.846Z,0.80
2023-02-06T14:20:44.327Z,0.77
2023-02-06T14:25:56.185Z,0.82
2023-02-06T14:31:15.918Z,1.02
2023-02-06T14:36:35.963Z,1.23
2023-02-06T14:41:37.923Z,0.88
2023-02-06T14:46:41.239Z,1.10
2023-02-06T14:51:43.167Z,1.27
2023-02-06T14:56:44.721Z,1.60
2023-02-06T15:01:49.450Z,1.00
2023-02-06T15:06:52.189Z,1.35
2023-02-06T15:11:56.557Z,1.15
2023-02-06T15:16:59.083Z,1.20
2023-02-06T15:22:11.796Z,1.52
2023-02-06T15:27:34.280Z,1.75
2023-02-06T15:32:39.567Z,0.95
2023-02-06T15:37:40.974Z,1.42
2023-02-06T15:42:42.833Z,1.45
2023-02-06T15:47:44.678Z,3.20
2023-02-06T15:52:46.333Z,1.77
2023-02-06T15:57:49.192Z,1.73
2023-02-06T16:02:51.611Z,1.95
2023-02-06T16:07:53.478Z,1.75
2023-02-06T16:12:56.680Z,2.83
2023-02-06T16:18:00.485Z,2.78
2023-02-06T16:23:22.193Z,2.33
2023-02-06T16:28:26.979Z,1.27
2023-02-06T16:33:37.896Z,1.58
2023-02-06T16:38:43.125Z,1.02
2023-02-06T16:43:46.056Z,1.35
2023-02-06T16:48:47.732Z,2.05
2023-02-06T16:53:50.344Z,1.65
2023-02-06T16:58:52.002Z,2.15
2023-02-06T17:03:54.071Z,2.15
2023-02-06T17:09:01.956Z,1.60
2023-02-06T17:14:03.707Z,1.65
2023-02-06T17:19:05.286Z,1.77
2023-02-06T17:24:07.058Z,0.68
2023-02-06T17:29:12.800Z,1.65
2023-02-06T17:34:14.375Z,1.20
2023-02-06T17:39:15.797Z,0.90
2023-02-06T17:44:17.781Z,0.90
2023-02-06T17:49:19.378Z,0.98
2023-02-06T17:54:20.854Z,1.00
2023-02-06T17:59:22.352Z,1.45
2023-02-06T18:04:23.984Z,1.70
2023-02-06T18:09:25.436Z,1.50
2023-02-06T18:14:26.925Z,0.93
2023-02-06T18:19:28.549Z,1.42
2023-02-06T18:24:30.094Z,0.90
2023-02-06T18:29:48.950Z,2.70
2023-02-06T18:34:51.417Z,1.52
2023-02-06T18:39:53.237Z,1.38
2023-02-06T18:44:54.642Z,1.42
2023-02-06T18:49:56.289Z,1.20
2023-02-06T18:54:57.786Z,0.90
2023-02-06T18:59:59.223Z,1.00
2023-02-06T19:05:00.818Z,1.00
2023-02-06T19:10:04.801Z,1.17
2023-02-06T19:15:06.713Z,1.63
2023-02-06T19:20:09.219Z,0.93
2023-02-06T19:25:14.212Z,1.20
2023-02-06T19:30:16.102Z,0.88
2023-02-06T19:35:17.680Z,1.20
2023-02-06T19:40:19.249Z,1.13
2023-02-06T19:45:20.737Z,0.50
2023-02-06T19:50:22.382Z,0.60
2023-02-06T19:55:23.822Z,1.08
2023-02-06T20:00:25.356Z,0.80
2023-02-06T20:05:27.340Z,0.52
2023-02-06T20:10:29.186Z,1.23
2023-02-06T20:15:30.676Z,1.10
2023-02-06T20:20:36.031Z,1.00
2023-02-06T20:25:38.019Z,0.95
2023-02-06T20:30:39.983Z,1.33
2023-02-06T20:35:45.362Z,0.93
2023-02-06T20:40:51.219Z,0.28
2023-02-06T20:45:52.806Z,0.85
2023-02-06T20:51:02.048Z,0.68
2023-02-06T20:56:03.679Z,0.65
2023-02-06T21:01:16.933Z,0.43
2023-02-06T21:06:18.514Z,1.10
2023-02-06T21:11:20.221Z,1.10
2023-02-06T21:16:21.655Z,1.38
2023-02-06T21:21:24.158Z,1.10
2023-02-06T21:26:26.854Z,0.60
2023-02-06T21:31:31.071Z,1.30
2023-02-06T21:36:34.518Z,1.00
2023-02-06T21:41:36.608Z,1.05
2023-02-06T21:46:38.246Z,1.05
2023-02-06T21:51:39.754Z,0.73
2023-02-06T21:56:41.260Z,1.20
2023-02-06T22:01:43.240Z,2.42
2023-02-06T22:06:44.708Z,1.48
2023-02-06T22:11:46.620Z,2.17
2023-02-06T22:16:48.181Z,1.92
2023-02-06T22:21:49.724Z,1.73
2023-02-06T22:26:51.283Z,1.30
2023-02-06T22:31:52.729Z,1.63
2023-02-06T22:36:54.200Z,1.17
2023-02-06T22:41:55.636Z,1.00
2023-02-06T22:46:57.259Z,1.30
2023-02-06T22:51:58.851Z,0.70
2023-02-06T22:57:00.391Z,1.40
2023-02-06T23:02:02.130Z,0.70
2023-02-06T23:07:04.597Z,1.42
2023-02-06T23:12:06.533Z,0.70
2023-02-06T23:17:08.088Z,1.08
2023-02-06T23:22:09.690Z,0.85
2023-02-06T23:27:11.242Z,1.13
2023-02-06T23:32:12.705Z,1.15
2023-02-06T23:37:14.143Z,0.60
2023-02-06T23:42:15.629Z,1.05
2023-02-06T23:47:17.099Z,1.42
2023-02-06T23:52:18.699Z,0.90
2023-02-06T23:57:20.121Z,0.98
